createdAt,value
2018-04-29T00:01:55.310Z,17.80
2018-04-29T00:04:22.884Z,17.80
2018-04-29T00:06:50.458Z,17.80
2018-04-29T00:09:18.052Z,17.80
2018-04-29T00:11:45.628Z,17.70
2018-04-29T00:14:13.196Z,17.70
2018-04-29T00:16:40.762Z,17.70
2018-04-29T00:19:08.279Z,17.70
2018-04-29T00:21:35.829Z,17.70
2018-04-29T00:24:03.415Z,17.70
2018-04-29T00:26:31.177Z,17.80
2018-04-29T00:28:58.749Z,17.70
2018-04-29T00:31:26.312Z,17.60
2018-04-29T00:33:53.890Z,17.60
2018-04-29T00:36:22.222Z,17.60
2018-04-29T00:38:49.761Z,17.60
2018-04-29T00:41:17.363Z,17.60
2018-04-29T00:43:44.945Z,17.70
2018-04-29T00:46:13.316Z,17.60
2018-04-29T00:48:40.910Z,17.60
2018-04-29T00:51:08.504Z,17.70
2018-04-29T00:53:36.046Z,17.70
2018-04-29T00:56:03.631Z,17.70
2018-04-29T00:58:31.201Z,17.70
2018-04-29T01:00:58.731Z,17.70
2018-04-29T01:03:26.300Z,17.60
2018-04-29T01:05:53.936Z,17.50
2018-04-29T01:08:21.411Z,17.50
2018-04-29T01:10:49.035Z,17.50
2018-04-29T01:13:17.449Z,17.50
2018-04-29T01:15:45.009Z,17.40
2018-04-29T01:18:12.568Z,17.40
2018-04-29T01:20:40.142Z,17.40
2018-04-29T01:23:07.714Z,17.30
2018-04-29T01:25:35.294Z,17.00
2018-04-29T01:28:02.827Z,16.90
2018-04-29T01:30:30.407Z,16.90
2018-04-29T01:32:57.941Z,16.80
2018-04-29T01:35:25.511Z,16.80
2018-04-29T01:37:53.062Z,16.70
2018-04-29T01:40:20.626Z,16.70
2018-04-29T01:42:48.155Z,16.60
2018-04-29T01:45:15.723Z,16.60
2018-04-29T01:47:43.325Z,16.50
2018-04-29T01:50:10.859Z,16.40
2018-04-29T01:52:38.422Z,16.40
2018-04-29T01:55:05.951Z,16.40
2018-04-29T01:57:33.520Z,16.50
2018-04-29T02:00:01.098Z,16.40
2018-04-29T02:02:28.855Z,16.40
2018-04-29T02:04:56.516Z,16.40
2018-04-29T02:07:24.035Z,16.40
2018-04-29T02:09:52.403Z,16.50
2018-04-29T02:12:20.732Z,16.60
2018-04-29T02:14:48.307Z,16.60
2018-04-29T02:17:15.840Z,16.60
2018-04-29T02:19:43.422Z,16.60
2018-04-29T02:22:10.997Z,16.60
2018-04-29T02:24:38.522Z,16.60
2018-04-29T02:27:06.104Z,16.50
2018-04-29T02:29:33.628Z,16.50
2018-04-29T02:32:01.972Z,16.50
2018-04-29T02:34:29.509Z,16.50
2018-04-29T02:36:57.064Z,16.50
2018-04-29T02:39:24.655Z,16.50
2018-04-29T02:41:52.341Z,16.40
2018-04-29T02:44:19.922Z,16.40
2018-04-29T02:46:47.569Z,16.40
2018-04-29T02:49:15.354Z,16.30
2018-04-29T02:51:43.131Z,16.20
2018-04-29T02:54:10.680Z,16.10
2018-04-29T02:56:38.218Z,16.10
2018-04-29T02:59:05.797Z,16.10
2018-04-29T03:01:33.628Z,16.10
2018-04-29T03:04:01.956Z,16.00
2018-04-29T03:06:29.516Z,16.00
2018-04-29T03:08:57.081Z,16.10
2018-04-29T03:11:24.687Z,16.10
2018-04-29T03:13:53.071Z,16.30
2018-04-29T03:16:21.382Z,16.30
2018-04-29T03:18:49.198Z,16.30
2018-04-29T03:21:17.631Z,16.40
2018-04-29T03:23:45.164Z,16.40
2018-04-29T03:26:12.720Z,16.40
2018-04-29T03:28:40.272Z,16.40
2018-04-29T03:31:08.600Z,16.60
2018-04-29T03:33:36.210Z,16.50
2018-04-29T03:36:03.759Z,16.70
2018-04-29T03:38:31.342Z,16.70
2018-04-29T03:40:58.903Z,16.80
2018-04-29T03:43:26.440Z,16.70
2018-04-29T03:45:54.013Z,16.70
2018-04-29T03:48:22.291Z,16.70
2018-04-29T03:50:49.856Z,16.70
2018-04-29T03:53:17.375Z,16.70
2018-04-29T03:55:45.096Z,16.60
2018-04-29T03:58:24.463Z,16.70
2018-04-29T04:01:03.761Z,16.60
2018-04-29T04:03:43.027Z,16.50
2018-04-29T04:06:10.744Z,16.40
2018-04-29T04:08:38.306Z,16.40
2018-04-29T04:11:06.019Z,16.40
2018-04-29T04:13:33.592Z,16.30
2018-04-29T04:16:01.135Z,16.40
2018-04-29T04:18:28.708Z,16.40
2018-04-29T04:20:56.275Z,16.50
2018-04-29T04:23:23.818Z,16.40
2018-04-29T04:25:51.392Z,16.50
2018-04-29T04:28:18.989Z,16.50
2018-04-29T04:30:46.554Z,16.50
2018-04-29T04:33:14.108Z,16.40
2018-04-29T04:35:41.637Z,16.40
2018-04-29T04:38:09.200Z,16.40
2018-04-29T04:40:36.771Z,16.40
2018-04-29T04:43:04.353Z,16.50
2018-04-29T04:45:31.918Z,16.40
2018-04-29T04:47:59.443Z,16.30
2018-04-29T04:50:27.783Z,16.40
2018-04-29T04:52:55.307Z,16.30
2018-04-29T04:55:22.869Z,16.40
2018-04-29T04:57:50.417Z,16.50
2018-04-29T05:00:18.007Z,16.50
2018-04-29T05:02:45.724Z,16.50
2018-04-29T05:05:14.149Z,16.50
2018-04-29T05:07:41.720Z,16.50
2018-04-29T05:10:09.241Z,16.50
2018-04-29T05:12:36.848Z,16.50
2018-04-29T05:15:04.406Z,16.40
2018-04-29T05:17:31.968Z,16.40
2018-04-29T05:19:59.512Z,16.40
2018-04-29T05:22:27.065Z,16.40
2018-04-29T05:24:54.702Z,16.30
2018-04-29T05:27:23.028Z,16.30
2018-04-29T05:29:50.587Z,16.20
2018-04-29T05:32:18.154Z,16.30
2018-04-29T05:34:45.687Z,16.40
2018-04-29T05:37:13.231Z,16.40
2018-04-29T05:39:40.752Z,16.40
2018-04-29T05:42:08.317Z,16.40
2018-04-29T05:44:35.847Z,16.40
2018-04-29T05:47:03.428Z,16.40
2018-04-29T05:49:31.021Z,16.40
2018-04-29T05:51:58.558Z,16.40
2018-04-29T05:54:27.133Z,16.40
2018-04-29T05:56:54.700Z,16.40
2018-04-29T05:59:23.005Z,16.60
2018-04-29T06:01:50.563Z,16.60
2018-04-29T06:04:18.144Z,16.60
2018-04-29T06:06:45.693Z,16.70
2018-04-29T06:09:14.104Z,16.80
2018-04-29T06:11:41.746Z,16.90
2018-04-29T06:14:09.375Z,17.00
2018-04-29T06:16:36.891Z,17.10
2018-04-29T06:19:04.457Z,17.00
2018-04-29T06:21:32.008Z,17.10
2018-04-29T06:23:59.581Z,17.30
2018-04-29T06:26:27.124Z,17.20
2018-04-29T06:28:54.669Z,17.40
2018-04-29T06:31:22.187Z,17.50
2018-04-29T06:33:50.480Z,17.60
2018-04-29T06:36:18.221Z,17.60
2018-04-29T06:38:45.878Z,17.70
2018-04-29T06:41:13.491Z,17.80
2018-04-29T06:43:41.130Z,17.80
2018-04-29T06:46:08.713Z,17.90
2018-04-29T06:48:36.253Z,18.00
2018-04-29T06:51:03.830Z,18.10
2018-04-29T06:53:31.479Z,18.20
2018-04-29T06:55:59.809Z,18.40
2018-04-29T06:58:27.561Z,18.40
2018-04-29T07:00:55.293Z,18.50
2018-04-29T07:03:23.691Z,18.90
2018-04-29T07:05:51.247Z,18.80
2018-04-29T07:08:18.802Z,19.00
2018-04-29T07:10:46.359Z,19.20
2018-04-29T07:13:14.538Z,19.30
2018-04-29T07:15:42.095Z,19.40
2018-04-29T07:18:09.620Z,19.50
2018-04-29T07:20:37.144Z,19.60
2018-04-29T07:23:04.743Z,19.80
2018-04-29T07:25:34.240Z,19.90
2018-04-29T07:28:02.591Z,20.20
2018-04-29T07:30:30.185Z,20.20
2018-04-29T07:32:57.761Z,20.30
2018-04-29T07:35:25.299Z,20.40
2018-04-29T07:37:52.955Z,20.50
2018-04-29T07:40:20.632Z,20.70
2018-04-29T07:42:48.162Z,20.70
2018-04-29T07:45:15.737Z,20.90
2018-04-29T07:47:44.076Z,21.20
2018-04-29T07:50:11.666Z,21.20
2018-04-29T07:52:39.442Z,21.30
2018-04-29T07:55:07.325Z,21.40
2018-04-29T07:57:35.216Z,21.40
2018-04-29T08:00:03.060Z,21.50
2018-04-29T08:02:30.636Z,21.60
2018-04-29T08:04:58.419Z,21.80
2018-04-29T08:07:25.986Z,21.80
2018-04-29T08:09:53.547Z,21.80
2018-04-29T08:12:21.114Z,21.90
2018-04-29T08:14:49.549Z,22.10
2018-04-29T08:17:17.919Z,22.10
2018-04-29T08:19:46.309Z,22.10
2018-04-29T08:22:13.962Z,22.10
2018-04-29T08:24:41.489Z,22.20
2018-04-29T08:27:09.090Z,22.30
2018-04-29T08:29:36.636Z,22.20
2018-04-29T08:32:04.266Z,22.30
2018-04-29T08:34:31.804Z,22.30
2018-04-29T08:36:59.407Z,22.30
2018-04-29T08:39:27.711Z,22.30
2018-04-29T08:41:55.320Z,22.30
2018-04-29T08:44:22.866Z,22.30
2018-04-29T08:46:50.925Z,22.40
2018-04-29T08:49:18.467Z,22.40
2018-04-29T08:51:46.058Z,22.40
2018-04-29T08:54:13.618Z,22.40
2018-04-29T08:56:41.134Z,22.30
2018-04-29T08:59:08.698Z,22.30
2018-04-29T09:01:36.290Z,22.30
2018-04-29T09:04:03.913Z,22.20
2018-04-29T09:06:31.514Z,22.20
2018-04-29T09:08:59.130Z,22.30
2018-04-29T09:11:26.700Z,22.30
2018-04-29T09:13:54.366Z,22.30
2018-04-29T09:16:21.924Z,22.20
2018-04-29T09:18:49.462Z,22.20
2018-04-29T09:21:17.798Z,22.30
2018-04-29T09:23:45.333Z,22.30
2018-04-29T09:26:12.914Z,22.30
2018-04-29T09:28:40.484Z,22.30
2018-04-29T09:31:08.047Z,22.30
2018-04-29T09:33:35.571Z,22.30
2018-04-29T09:36:03.133Z,22.30
2018-04-29T09:38:30.681Z,22.30
2018-04-29T09:40:58.288Z,22.20
2018-04-29T09:43:25.896Z,22.30
2018-04-29T09:45:53.472Z,22.30
2018-04-29T09:48:21.247Z,22.20
2018-04-29T09:50:48.800Z,22.30
2018-04-29T09:53:16.409Z,22.40
2018-04-29T09:55:43.976Z,22.30
2018-04-29T09:58:11.507Z,22.30
2018-04-29T10:00:39.074Z,22.30
2018-04-29T10:03:07.483Z,22.30
2018-04-29T10:05:35.816Z,22.30
2018-04-29T10:08:03.382Z,22.30
2018-04-29T10:10:30.999Z,22.30
2018-04-29T10:12:58.509Z,22.30
2018-04-29T10:15:26.106Z,22.30
2018-04-29T10:17:53.699Z,22.30
2018-04-29T10:20:21.237Z,22.30
2018-04-29T10:22:48.818Z,22.30
2018-04-29T10:25:16.419Z,22.30
2018-04-29T10:27:43.959Z,22.30
2018-04-29T10:30:11.602Z,22.30
2018-04-29T10:32:39.137Z,22.30
2018-04-29T10:35:06.706Z,22.20
2018-04-29T10:37:34.917Z,22.20
2018-04-29T10:40:02.515Z,22.10
2018-04-29T10:42:30.057Z,22.20
2018-04-29T10:44:57.622Z,22.20
2018-04-29T10:47:25.199Z,22.20
2018-04-29T10:49:52.791Z,22.20
2018-04-29T10:52:20.410Z,22.30
2018-04-29T10:54:47.972Z,22.30
2018-04-29T10:57:15.579Z,22.30
2018-04-29T10:59:43.163Z,22.30
2018-04-29T11:02:10.712Z,22.30
2018-04-29T11:04:38.385Z,22.40
2018-04-29T11:07:06.020Z,22.40
2018-04-29T11:09:33.591Z,22.50
2018-04-29T11:12:01.349Z,22.50
2018-04-29T11:14:28.942Z,22.50
2018-04-29T11:16:56.536Z,22.50
2018-04-29T11:19:24.085Z,22.50
2018-04-29T11:21:51.720Z,22.50
2018-04-29T11:24:19.274Z,22.60
2018-04-29T11:26:46.806Z,22.60
2018-04-29T11:29:14.395Z,22.60
2018-04-29T11:31:42.367Z,22.60
2018-04-29T11:34:09.937Z,22.60
2018-04-29T11:36:37.485Z,22.60
2018-04-29T11:39:05.073Z,22.70
2018-04-29T11:41:33.803Z,22.80
2018-04-29T11:44:01.365Z,22.80
2018-04-29T11:46:28.957Z,22.90
2018-04-29T11:48:56.521Z,22.90
2018-04-29T11:51:24.142Z,22.90
2018-04-29T11:53:51.751Z,23.00
2018-04-29T11:56:19.297Z,23.00
2018-04-29T11:58:46.844Z,23.10
2018-04-29T12:01:14.407Z,23.10
2018-04-29T12:03:42.374Z,23.20
2018-04-29T12:06:09.947Z,23.20
2018-04-29T12:08:37.539Z,23.10
2018-04-29T12:11:05.864Z,23.20
2018-04-29T12:13:33.476Z,23.10
2018-04-29T12:16:01.789Z,23.20
2018-04-29T12:18:29.356Z,23.20
2018-04-29T12:20:57.633Z,23.40
2018-04-29T12:23:25.229Z,23.50
2018-04-29T12:25:52.805Z,23.60
2018-04-29T12:28:20.352Z,23.50
2018-04-29T12:30:47.932Z,23.40
2018-04-29T12:33:15.484Z,23.40
2018-04-29T12:35:43.043Z,23.40
2018-04-29T12:38:11.385Z,23.50
2018-04-29T12:40:38.949Z,23.40
2018-04-29T12:43:06.516Z,23.60
2018-04-29T12:45:34.047Z,23.60
2018-04-29T12:48:01.626Z,23.60
2018-04-29T12:50:29.167Z,23.50
2018-04-29T12:52:56.746Z,23.50
2018-04-29T12:55:24.303Z,23.70
2018-04-29T12:57:51.868Z,23.90
2018-04-29T13:00:19.494Z,23.90
2018-04-29T13:02:47.131Z,24.00
2018-04-29T13:05:14.673Z,24.10
2018-04-29T13:07:42.248Z,24.10
2018-04-29T13:10:09.808Z,24.20
2018-04-29T13:12:37.405Z,24.10
2018-04-29T13:15:04.979Z,24.00
2018-04-29T13:17:32.644Z,24.00
2018-04-29T13:20:00.224Z,24.00
2018-04-29T13:22:27.775Z,23.90
2018-04-29T13:24:55.339Z,23.80
2018-04-29T13:27:23.243Z,23.80
2018-04-29T13:29:51.606Z,23.90
2018-04-29T13:32:19.909Z,24.10
2018-04-29T13:34:47.467Z,24.10
2018-04-29T13:37:15.008Z,24.10
2018-04-29T13:39:43.355Z,24.00
2018-04-29T13:42:10.916Z,24.00
2018-04-29T13:44:38.516Z,23.90
2018-04-29T13:47:06.844Z,23.90
2018-04-29T13:49:34.448Z,23.80
2018-04-29T13:52:02.755Z,24.00
2018-04-29T13:54:30.364Z,24.00
2018-04-29T13:56:57.915Z,24.10
2018-04-29T13:59:25.483Z,24.10
2018-04-29T14:01:53.117Z,24.30
2018-04-29T14:04:20.696Z,24.30
2018-04-29T14:06:48.292Z,24.30
2018-04-29T14:09:15.863Z,24.30
2018-04-29T14:11:43.509Z,24.30
2018-04-29T14:14:11.117Z,24.40
2018-04-29T14:16:38.795Z,24.30
2018-04-29T14:19:06.316Z,24.30
2018-04-29T14:21:33.971Z,24.30
2018-04-29T14:24:01.518Z,24.30
2018-04-29T14:26:29.080Z,24.30
2018-04-29T14:28:57.414Z,24.30
2018-04-29T14:31:25.884Z,24.40
2018-04-29T14:33:53.571Z,24.40
2018-04-29T14:36:21.051Z,24.60
2018-04-29T14:38:49.409Z,24.60
2018-04-29T14:41:16.991Z,24.60
2018-04-29T14:43:45.220Z,24.70
2018-04-29T14:46:12.796Z,24.60
2018-04-29T14:48:40.405Z,24.60
2018-04-29T14:51:07.971Z,24.50
2018-04-29T14:53:35.535Z,24.50
2018-04-29T14:56:03.168Z,24.40
2018-04-29T14:58:30.697Z,24.40
2018-04-29T15:00:58.273Z,24.40
2018-04-29T15:03:25.842Z,24.40
2018-04-29T15:05:54.150Z,24.40
2018-04-29T15:08:21.720Z,24.40
2018-04-29T15:10:49.265Z,24.50
2018-04-29T15:13:16.840Z,24.60
2018-04-29T15:15:44.446Z,24.60
2018-04-29T15:18:24.644Z,24.70
2018-04-29T15:20:52.192Z,24.70
2018-04-29T15:23:20.523Z,24.70
2018-04-29T15:25:48.291Z,24.70
2018-04-29T15:28:16.579Z,24.70
2018-04-29T15:30:44.147Z,24.70
2018-04-29T15:33:11.807Z,24.80
2018-04-29T15:35:39.357Z,24.80
2018-04-29T15:38:06.992Z,24.70
2018-04-29T15:40:34.601Z,24.70
2018-04-29T15:43:02.963Z,24.60
2018-04-29T15:45:30.577Z,24.60
2018-04-29T15:47:58.142Z,24.80
2018-04-29T15:50:25.704Z,24.90
2018-04-29T15:52:53.369Z,24.90
2018-04-29T15:55:20.941Z,24.80
2018-04-29T15:57:48.461Z,24.80
2018-04-29T16:00:16.042Z,24.80
2018-04-29T16:02:43.568Z,24.70
2018-04-29T16:05:11.879Z,24.70
2018-04-29T16:07:39.458Z,24.60
2018-04-29T16:10:07.020Z,24.70
2018-04-29T16:12:34.617Z,24.60
2018-04-29T16:15:02.225Z,24.60
2018-04-29T16:17:29.815Z,24.60
2018-04-29T16:19:57.397Z,24.50
2018-04-29T16:22:25.801Z,24.40
2018-04-29T16:24:53.364Z,24.40
2018-04-29T16:27:20.973Z,24.40
2018-04-29T16:29:48.610Z,24.40
2018-04-29T16:32:16.173Z,24.40
2018-04-29T16:34:43.840Z,24.50
2018-04-29T16:37:11.392Z,24.50
2018-04-29T16:39:38.982Z,24.60
2018-04-29T16:42:06.537Z,24.60
2018-04-29T16:44:34.100Z,24.60
2018-04-29T16:47:01.679Z,24.70
2018-04-29T16:49:29.270Z,24.70
2018-04-29T16:51:56.860Z,24.70
2018-04-29T16:54:24.428Z,24.70
2018-04-29T16:56:52.001Z,24.70
2018-04-29T16:59:19.532Z,24.70
2018-04-29T17:01:47.056Z,24.80
2018-04-29T17:04:15.409Z,24.70
2018-04-29T17:06:42.999Z,24.70
2018-04-29T17:09:11.391Z,24.50
2018-04-29T17:11:38.931Z,24.50
2018-04-29T17:14:06.923Z,24.50
2018-04-29T17:16:34.510Z,24.50
2018-04-29T17:19:02.040Z,24.50
2018-04-29T17:21:29.618Z,24.40
2018-04-29T17:23:57.139Z,24.30
2018-04-29T17:26:24.700Z,24.30
2018-04-29T17:28:52.233Z,24.20
2018-04-29T17:31:19.824Z,24.20
2018-04-29T17:33:47.368Z,24.10
2018-04-29T17:36:14.961Z,24.00
2018-04-29T17:38:42.744Z,24.00
2018-04-29T17:41:11.020Z,23.90
2018-04-29T17:43:38.598Z,23.90
2018-04-29T17:46:06.156Z,23.90
2018-04-29T17:48:33.754Z,23.80
2018-04-29T17:51:02.110Z,23.80
2018-04-29T17:53:29.684Z,23.80
2018-04-29T17:55:57.261Z,23.80
2018-04-29T17:58:24.837Z,23.80
2018-04-29T18:00:52.371Z,23.70
2018-04-29T18:03:20.742Z,23.70
2018-04-29T18:05:48.321Z,23.70
2018-04-29T18:08:15.928Z,23.70
2018-04-29T18:10:43.476Z,23.70
2018-04-29T18:13:12.025Z,23.80
2018-04-29T18:15:40.349Z,23.90
2018-04-29T18:18:07.876Z,23.80
2018-04-29T18:20:35.539Z,23.90
2018-04-29T18:23:03.130Z,23.90
2018-04-29T18:25:30.714Z,23.90
2018-04-29T18:27:58.304Z,23.70
2018-04-29T18:30:26.648Z,23.60
2018-04-29T18:32:54.289Z,23.60
2018-04-29T18:35:21.845Z,23.60
2018-04-29T18:37:49.420Z,23.60
2018-04-29T18:40:16.944Z,23.60
2018-04-29T18:42:44.543Z,23.50
2018-04-29T18:45:12.144Z,23.40
2018-04-29T18:47:42.822Z,23.40
2018-04-29T18:50:10.438Z,23.40
2018-04-29T18:52:38.039Z,23.40
2018-04-29T18:55:05.636Z,23.30
2018-04-29T18:57:33.261Z,23.30
2018-04-29T19:00:00.993Z,23.30
2018-04-29T19:02:28.477Z,23.30
2018-04-29T19:04:56.122Z,23.20
2018-04-29T19:07:23.684Z,23.20
2018-04-29T19:09:51.261Z,23.20
2018-04-29T19:12:18.796Z,23.10
2018-04-29T19:14:46.385Z,23.10
2018-04-29T19:17:13.964Z,23.20
2018-04-29T19:19:41.504Z,23.10
2018-04-29T19:22:09.070Z,23.10
2018-04-29T19:24:36.703Z,23.20
2018-04-29T19:27:04.283Z,23.10
2018-04-29T19:29:31.823Z,23.10
2018-04-29T19:31:59.440Z,23.10
2018-04-29T19:34:27.023Z,23.10
2018-04-29T19:36:55.426Z,23.00
2018-04-29T19:39:23.740Z,23.00
2018-04-29T19:41:51.304Z,22.90
2018-04-29T19:44:19.896Z,22.90
2018-04-29T19:46:47.435Z,22.90
2018-04-29T19:49:15.016Z,22.80
2018-04-29T19:51:42.576Z,22.80
2018-04-29T19:54:10.216Z,22.80
2018-04-29T19:56:37.843Z,22.70
2018-04-29T19:59:05.420Z,22.70
2018-04-29T20:01:32.964Z,22.60
2018-04-29T20:04:00.568Z,22.70
2018-04-29T20:06:28.150Z,22.60
2018-04-29T20:08:55.692Z,22.60
2018-04-29T20:11:23.303Z,22.60
2018-04-29T20:13:50.908Z,22.50
2018-04-29T20:16:18.481Z,22.50
2018-04-29T20:18:46.057Z,22.50
2018-04-29T20:21:13.611Z,22.50
2018-04-29T20:23:41.347Z,22.50
2018-04-29T20:26:08.908Z,22.40
2018-04-29T20:28:36.515Z,22.40
2018-04-29T20:31:04.868Z,22.30
2018-04-29T20:33:32.454Z,22.30
2018-04-29T20:36:00.765Z,22.30
2018-04-29T20:38:28.348Z,22.20
2018-04-29T20:40:55.907Z,22.20
2018-04-29T20:43:23.655Z,22.20
2018-04-29T20:45:51.253Z,22.20
2018-04-29T20:48:18.963Z,22.20
2018-04-29T20:50:46.542Z,21.20
2018-04-29T20:53:14.126Z,22.20
2018-04-29T20:55:41.732Z,22.20
2018-04-29T20:58:09.269Z,22.20
2018-04-29T21:00:36.914Z,22.20
2018-04-29T21:03:04.446Z,22.20
2018-04-29T21:05:32.075Z,22.20
2018-04-29T21:07:59.724Z,22.20
2018-04-29T21:10:27.239Z,22.20
2018-04-29T21:12:54.768Z,22.30
2018-04-29T21:15:22.328Z,22.30
2018-04-29T21:17:49.908Z,22.30
2018-04-29T21:20:17.507Z,22.30
2018-04-29T21:22:45.851Z,22.30
2018-04-29T21:25:13.443Z,22.20
2018-04-29T21:27:41.074Z,22.20
2018-04-29T21:30:08.614Z,22.20
2018-04-29T21:32:36.175Z,22.10
2018-04-29T21:35:03.705Z,22.10
2018-04-29T21:37:32.064Z,22.10
2018-04-29T21:39:59.612Z,22.00
2018-04-29T21:42:27.328Z,22.00
2018-04-29T21:44:54.911Z,22.00
2018-04-29T21:47:22.474Z,22.00
2018-04-29T21:49:50.015Z,21.90
2018-04-29T21:52:17.617Z,21.90
2018-04-29T21:54:45.166Z,21.90
2018-04-29T21:57:12.764Z,21.90
2018-04-29T21:59:41.078Z,21.90
2018-04-29T22:02:08.647Z,21.90
2018-04-29T22:04:36.192Z,21.90
2018-04-29T22:07:03.772Z,21.90
2018-04-29T22:09:31.876Z,22.00
2018-04-29T22:12:00.204Z,21.90
2018-04-29T22:14:27.764Z,21.90
2018-04-29T22:16:55.323Z,21.90
2018-04-29T22:19:23.140Z,21.90
2018-04-29T22:21:50.720Z,21.90
2018-04-29T22:24:18.307Z,21.90
2018-04-29T22:26:45.850Z,21.90
2018-04-29T22:29:13.442Z,21.90
2018-04-29T22:31:41.027Z,21.90
2018-04-29T22:34:08.609Z,21.90
2018-04-29T22:36:36.915Z,21.90
2018-04-29T22:39:04.499Z,21.90
2018-04-29T22:41:32.065Z,21.90
2018-04-29T22:43:59.628Z,21.90
2018-04-29T22:46:27.234Z,22.00
2018-04-29T22:48:54.792Z,22.00
2018-04-29T22:51:23.157Z,22.10
2018-04-29T22:53:50.727Z,22.10
2018-04-29T22:56:19.092Z,22.10
2018-04-29T22:58:46.636Z,22.10
2018-04-29T23:01:14.232Z,22.10
2018-04-29T23:03:42.596Z,22.00
2018-04-29T23:06:10.168Z,20.50
2018-04-29T23:08:38.543Z,22.00
2018-04-29T23:11:06.860Z,22.00
2018-04-29T23:13:34.457Z,21.90
2018-04-29T23:16:02.048Z,21.90
2018-04-29T23:18:29.576Z,21.90
2018-04-29T23:20:57.145Z,21.90
2018-04-29T23:23:24.678Z,21.90
2018-04-29T23:25:52.250Z,21.80
2018-04-29T23:28:19.810Z,21.90
2018-04-29T23:30:47.412Z,21.90
2018-04-29T23:33:14.984Z,21.90
2018-04-29T23:35:42.565Z,21.90
2018-04-29T23:38:10.119Z,21.90
2018-04-29T23:40:37.706Z,21.90
2018-04-29T23:43:05.300Z,21.90
2018-04-29T23:45:32.872Z,21.90
2018-04-29T23:48:01.211Z,22.00
2018-04-29T23:50:28.764Z,22.00
2018-04-29T23:52:56.444Z,22.10
2018-04-29T23:55:24.000Z,22.10
2018-04-29T23:57:51.551Z,22.10
